Queen Elizabeth — ZCEF2 — position and weather

sailwx.info

Track history (hours):
 
Tides and Currents Weather Stations Pressure Air Temp Water Temp Dewpoint Dewpoint Depression Visibility Wind Speed Wind Dir Waves Ship Positions

Queen Elizabeth

Last reported at 2017-Jun-26 11:56 UTC. Time now 2017-Jun-26 12:07 UTC.
Position N 58°58' E 005°44'.

Length 294 m; draft 8 m.

Type: Passenger vessel. MMSI: 310625000.

Date/timePositionNaut miles runAvg speedWind from/ knotsBaromVisibWave heightAir tempDewpointWater temp
2017-Jun-26 11:56N 58°58' E 005°44'0 0.0
2017-Jun-26 11:26N 58°58' E 005°44'0 0.0
2017-Jun-26 10:56N 58°58' E 005°44'0 0.0
2017-Jun-26 10:26N 58°58' E 005°44'0 0.0
2017-Jun-26 09:56N 58°58' E 005°44'0 0.0
2017-Jun-26 09:26N 58°58' E 005°44'0 0.0
2017-Jun-26 08:56N 58°58' E 005°44'0 0.0
2017-Jun-26 08:26N 58°58' E 005°44'0 0.0
2017-Jun-26 07:56N 58°58' E 005°44'0 0.0
2017-Jun-26 07:26N 58°58' E 005°44'0 0.0
2017-Jun-26 06:56N 58°58' E 005°44'0 0.0
2017-Jun-26 06:26N 58°58' E 005°44'0 0.0
2017-Jun-26 05:56N 58°58' E 005°44'0 0.4
2017-Jun-26 05:31N 58°59' E 005°44'4 7.7
2017-Jun-26 05:01N 59°01' E 005°38'4 7.8
2017-Jun-26 04:31N 58°59' E 005°33'714.8
2017-Jun-26 04:01N 58°51' E 005°31'713.4
2017-Jun-26 03:30N 58°47' E 005°21'815.4
2017-Jun-26 03:00N 58°40' E 005°13'815.9
2017-Jun-26 02:30N 58°33' E 005°06'815.8
2017-Jun-26 02:00N 58°27' E 004°58'15317.0
2017-Jun-25 17:00N 56°00' E 003°36'20717.2 260 / 271004.710.8 13.5 7.414.0
2017-Jun-25 05:00N 52°36' E 002°36'3521.5 260 / 261008.4 5.4 15.113.315.0
2017-Jun-25 03:21N 52°01' E 002°36'820.1
2017-Jun-25 02:57N 51°53' E 002°36'919.9
2017-Jun-25 02:30N 51°44' E 002°32'1020.4
2017-Jun-25 02:00N 51°36' E 002°22'1020.8
2017-Jun-25 01:30N 51°28' E 002°11'1019.3
2017-Jun-25 01:00N 51°19' E 002°07'1019.5
2017-Jun-25 00:30N 51°11' E 001°57'1121.2
2017-Jun-25 00:00N 51°05' E 001°44'1121.7
2017-Jun-24 23:30N 50°58' E 001°31'1020.6
2017-Jun-24 23:00N 50°48' E 001°24'1019.4
2017-Jun-24 22:30N 50°40' E 001°16'1419.8
2017-Jun-24 21:49N 50°32' E 000°59'719.6
2017-Jun-24 21:28N 50°30' E 000°48'1520.2
2017-Jun-24 20:44N 50°25' E 000°27'520.6
2017-Jun-24 20:29N 50°23' E 000°19'1020.5
2017-Jun-24 20:00N 50°22' E 000°04'1219.5
2017-Jun-24 19:25N 50°26' W 000°13'819.8
2017-Jun-24 19:00N 50°29' W 000°25'1019.4
2017-Jun-24 18:30N 50°34' W 000°38'1019.9
2017-Jun-24 18:00N 50°38' W 000°52'7416.3
2017-Jun-24 18:00N 50°36' W 000°42'1326.9 230 / 391013.4 5.4 16.515.818.0
2017-Jun-24 17:30N 50°43' W 000°59'918.2
2017-Jun-24 17:00N 50°46' W 001°13'510.5
2017-Jun-24 16:30N 50°50' W 001°19'5 9.5
2017-Jun-24 16:00N 50°53' W 001°24'1 1.0
2017-Jun-24 15:27N 50°54' W 001°24'0 0.0
2017-Jun-24 14:54N 50°54' W 001°24'0 0.0
2017-Jun-24 13:57N 50°54' W 001°24'0 0.0
2017-Jun-24 13:18N 50°54' W 001°24'0 0.0
2017-Jun-24 12:36N 50°54' W 001°24'0 0.0
2017-Jun-24 12:15N 50°54' W 001°24'0 0.0
2017-Jun-24 11:51N 50°54' W 001°24'0 0.0
2017-Jun-24 11:09N 50°54' W 001°24'0 0.0
2017-Jun-24 11:00N 50°54' W 001°24'0 0.0
2017-Jun-24 10:30N 50°54' W 001°24'0 0.0
2017-Jun-24 09:57N 50°54' W 001°24'0 0.0
2017-Jun-24 09:30N 50°54' W 001°24'0 0.0
2017-Jun-24 09:00N 50°54' W 001°24'0 0.0
2017-Jun-24 08:03N 50°54' W 001°24'0 0.0
2017-Jun-24 07:54N 50°54' W 001°24'0 0.0
2017-Jun-24 07:27N 50°54' W 001°24'0 0.0
2017-Jun-24 07:00N 50°54' W 001°24'0 0.0
2017-Jun-24 06:27N 50°54' W 001°24'0 0.0
2017-Jun-24 05:54N 50°54' W 001°24'0 0.0
2017-Jun-24 05:27N 50°54' W 001°24'1 1.4
2017-Jun-24 05:01N 50°53' W 001°24'5 9.4
2017-Jun-24 04:30N 50°50' W 001°18'4 8.3
2017-Jun-24 04:01N 50°46' W 001°15'816.5
2017-Jun-24 03:31N 50°44' W 001°02'612.5
2017-Jun-24 03:00N 50°39' W 000°56'714.2
2017-Jun-24 02:30N 50°35' W 000°46'917.3
2017-Jun-24 02:00N 50°34' W 000°33'917.7
2017-Jun-24 01:30N 50°33' W 000°19'918.5
2017-Jun-24 01:00N 50°32' W 000°05'917.7
2017-Jun-24 00:30N 50°33' E 000°09'917.8
2017-Jun-24 00:00N 50°36' E 000°22'917.5
2017-Jun-23 23:29N 50°39' E 000°36'817.6
2017-Jun-23 23:00N 50°43' E 000°47'917.1
2017-Jun-23 22:30N 50°49' E 000°57'816.8
2017-Jun-23 22:00N 50°54' E 001°07'816.8
2017-Jun-23 21:30N 50°60' E 001°18'917.3
2017-Jun-23 21:00N 51°05' E 001°29'917.7
2017-Jun-23 20:30N 51°10' E 001°40'917.3
2017-Jun-23 20:00N 51°17' E 001°48'918.0
2017-Jun-23 19:30N 51°25' E 001°55'918.5
2017-Jun-23 19:00N 51°33' E 002°03'918.1
2017-Jun-23 18:31N 51°39' E 002°14'918.5
2017-Jun-23 18:00N 51°46' E 002°24'1418.0
2017-Jun-23 17:13N 51°58' E 002°35'524.1
2017-Jun-23 17:00N 51°54' E 002°30'10346.6 220 / 281015.0 5.4 16.014.316.0
2017-Jun-23 16:58N 52°03' E 002°36'2217.3
2017-Jun-23 15:40N 52°24' E 002°49'3217.1
2017-Jun-23 13:47N 52°52' E 003°14'617.2
2017-Jun-23 13:28N 52°57' E 003°17'1117.5
2017-Jun-23 12:51N 53°08' E 003°22'617.5
2017-Jun-23 12:29N 53°14' E 003°25'917.6
2017-Jun-23 12:00N 53°22' E 003°29'917.8
2017-Jun-23 11:30N 53°31' E 003°33'1018.2
2017-Jun-23 10:57N 53°40' E 003°38'817.4
2017-Jun-23 10:30N 53°46' E 003°46'917.9
2017-Jun-23 10:00N 53°52' E 003°58'918.6
2017-Jun-23 09:30N 53°57' E 004°11'1218.5
2017-Jun-23 08:52N 54°04' E 004°27'818.3
2017-Jun-23 08:27N 54°10' E 004°35'918.4
2017-Jun-23 07:58N 54°18' E 004°43'918.5
2017-Jun-23 07:30N 54°26' E 004°49'918.4
2017-Jun-23 06:59N 54°34' E 004°58'918.6
2017-Jun-23 06:30N 54°41' E 005°07'918.8
2017-Jun-23 06:00N 54°49' E 005°16'1019.0
2017-Jun-23 05:30N 54°57' E 005°25'3 6.3
2017-Jun-23 05:00N 55°00' E 005°24'16020.3 280 / 271010.2 5.4 14.012.215.0
2017-Jun-22 21:08N 57°13' E 008°03'1919.1
2017-Jun-22 20:09N 57°23' E 008°32'319.3
2017-Jun-22 19:59N 57°25' E 008°37'1019.4
2017-Jun-22 19:30N 57°30' E 008°51'1319.3
2017-Jun-22 18:49N 57°37' E 009°13'619.2
2017-Jun-22 18:30N 57°40' E 009°22'1019.2
2017-Jun-22 17:59N 57°45' E 009°38'1419.2
2017-Jun-22 17:17N 57°49' E 010°02'519.5
2017-Jun-22 17:00N 57°50' E 010°13'4828.2
2017-Jun-22 17:00N 57°48' E 010°06'1327.2 140 / 51006.910.8 15.011.315.0
2017-Jun-22 16:30N 57°51' E 010°31'918.0
2017-Jun-22 16:00N 57°49' E 010°47'713.6
2017-Jun-22 15:30N 57°43' E 010°42'3 6.4
2017-Jun-22 15:00N 57°43' E 010°36'0 0.4
2017-Jun-22 13:40N 57°43' E 010°35'0 0.0
2017-Jun-22 13:16N 57°43' E 010°35'0 0.0
2017-Jun-22 12:58N 57°43' E 010°35'0 0.0
2017-Jun-22 12:10N 57°43' E 010°35'0 0.0
2017-Jun-22 11:46N 57°43' E 010°35'0 0.0
2017-Jun-22 11:04N 57°43' E 010°35'0 0.0
2017-Jun-22 09:52N 57°43' E 010°35'0 0.0
2017-Jun-22 09:28N 57°43' E 010°35'0 0.0
2017-Jun-22 08:58N 57°43' E 010°35'0 0.0
2017-Jun-22 08:28N 57°43' E 010°35'0 0.0
2017-Jun-22 08:01N 57°43' E 010°35'0 0.0
2017-Jun-22 07:28N 57°43' E 010°35'0 0.1
2017-Jun-22 07:01N 57°43' E 010°35'3 5.5
2017-Jun-22 06:30N 57°43' E 010°40'713.4
2017-Jun-22 05:59N 57°42' E 010°53'917.7
2017-Jun-22 05:30N 57°38' E 011°08'1020.7
2017-Jun-22 05:00N 57°31' E 011°22'5321.2
2017-Jun-22 05:00N 57°30' E 011°12'1327.3 240 / 261008.810.8 14.012.216.0
2017-Jun-22 04:30N 57°22' E 011°32'1021.2
2017-Jun-22 04:00N 57°12' E 011°38'2020.9
2017-Jun-22 03:03N 56°53' E 011°51'221.0
2017-Jun-22 02:58N 56°52' E 011°53'1019.4
2017-Jun-22 02:26N 56°41' E 011°54'1221.0
2017-Jun-22 01:51N 56°35' E 011°35'821.2
2017-Jun-22 01:30N 56°30' E 011°24'1220.4
2017-Jun-22 00:55N 56°22' E 011°08'6518.8
2017-Jun-21 21:28N 55°18' E 011°03'817.8
2017-Jun-21 21:01N 55°10' E 011°03'1019.8
2017-Jun-21 20:31N 54°60' E 011°01'1019.3
2017-Jun-21 20:00N 54°51' E 010°53'918.9
2017-Jun-21 19:31N 54°42' E 010°53'917.2
2017-Jun-21 19:00N 54°36' E 010°42'918.1
2017-Jun-21 18:30N 54°32' E 010°28'17 2.6
2017-Jun-21 12:03N 54°19' E 010°09'0 0.0
2017-Jun-21 12:00N 54°19' E 010°09'0 0.0
2017-Jun-21 11:30N 54°19' E 010°09'0 0.0
2017-Jun-21 10:54N 54°19' E 010°09'0 0.0
2017-Jun-21 10:30N 54°19' E 010°09'0 0.0
2017-Jun-21 10:00N 54°19' E 010°09'0 0.0
2017-Jun-21 09:30N 54°19' E 010°09'0 0.0
2017-Jun-21 09:00N 54°19' E 010°09'0 0.0
2017-Jun-21 08:30N 54°19' E 010°09'0 0.0
2017-Jun-21 08:00N 54°19' E 010°09'0 0.0
2017-Jun-21 07:30N 54°19' E 010°09'0 0.0
2017-Jun-21 07:00N 54°19' E 010°09'0 0.4
2017-Jun-21 06:30N 54°20' E 010°09'2 4.7
2017-Jun-21 06:00N 54°22' E 010°10'510.2
2017-Jun-21 05:30N 54°27' E 010°14'612.2
2017-Jun-21 05:01N 54°31' E 010°21'816.5
2017-Jun-21 04:31N 54°34' E 010°34'917.9
2017-Jun-21 04:01N 54°35' E 010°49'1019.0
2017-Jun-21 03:30N 54°36' E 011°06'919.0
2017-Jun-21 03:01N 54°33' E 011°21'1220.0
2017-Jun-21 02:24N 54°28' E 011°40'819.7
2017-Jun-21 02:01N 54°26' E 011°53'5318.4
2017-Jun-20 23:08N 54°53' E 013°11'321.0
2017-Jun-20 23:00N 54°54' E 013°16'1020.8
2017-Jun-20 22:30N 54°58' E 013°33'1020.7
2017-Jun-20 22:00N 55°01' E 013°50'1021.0
2017-Jun-20 21:30N 55°05' E 014°06'1121.2
2017-Jun-20 21:00N 55°14' E 014°17'1121.2
2017-Jun-20 20:30N 55°22' E 014°30'1020.8
2017-Jun-20 20:01N 55°28' E 014°45'1121.3
2017-Jun-20 19:31N 55°33' E 015°01'1121.2
2017-Jun-20 19:01N 55°38' E 015°17'1020.7
2017-Jun-20 18:30N 55°43' E 015°33'1020.7
2017-Jun-20 18:01N 55°48' E 015°49'1020.6
2017-Jun-20 17:30N 55°53' E 016°06'1020.6
2017-Jun-20 17:01N 55°59' E 016°21'7414.1
2017-Jun-20 17:00N 55°54' E 016°12'1735.6 290 / 331010.627.0 15.5 7.513.0
2017-Jun-20 16:30N 56°05' E 016°37'1020.8
2017-Jun-20 16:00N 56°11' E 016°51'17621.9
2017-Jun-20 07:59N 58°21' E 020°30'1122.8
2017-Jun-20 07:30N 58°30' E 020°42'1122.7
2017-Jun-20 07:00N 58°39' E 020°55'1122.3
2017-Jun-20 06:29N 58°48' E 021°08'1122.5
2017-Jun-20 06:00N 58°57' E 021°20'1122.3
2017-Jun-20 05:30N 59°06' E 021°33'1121.7
2017-Jun-20 05:00N 59°14' E 021°48'1122.0
2017-Jun-20 04:30N 59°21' E 022°05'1122.3
2017-Jun-20 04:00N 59°28' E 022°22'1122.2
2017-Jun-20 03:30N 59°33' E 022°41'1122.7
2017-Jun-20 03:01N 59°35' E 023°03'1122.7
2017-Jun-20 02:31N 59°38' E 023°25'1122.9
2017-Jun-20 02:01N 59°41' E 023°46'1122.8
2017-Jun-20 01:31N 59°45' E 024°08'1122.9
2017-Jun-20 01:01N 59°48' E 024°30'1122.8
2017-Jun-20 00:30N 59°50' E 024°52'1122.7
2017-Jun-20 00:01N 59°52' E 025°14'1122.7
2017-Jun-19 23:30N 59°53' E 025°37'1122.6
2017-Jun-19 23:00N 59°56' E 025°59'6345.5
2017-Jun-19 23:00N 59°54' E 025°48'1735.0 310 / 161008.110.8 14.0 5.612.0
2017-Jun-19 22:30N 59°59' E 026°20'1122.0
2017-Jun-19 22:00N 60°01' E 026°42'1121.9
2017-Jun-19 21:30N 60°00' E 027°04'1122.4
2017-Jun-19 21:01N 60°06' E 027°23'1122.3
2017-Jun-19 20:31N 60°11' E 027°43'1122.6
2017-Jun-19 20:00N 60°09' E 028°05'1121.4
2017-Jun-19 19:30N 60°05' E 028°25'1121.0
2017-Jun-19 19:00N 60°03' E 028°46'1122.0
2017-Jun-19 18:30N 60°02' E 029°07'917.7
2017-Jun-19 18:01N 60°02' E 029°25'5 9.1
2017-Jun-19 17:31N 60°01' E 029°34'611.5
2017-Jun-19 17:01N 59°59' E 029°45'510.9
2017-Jun-19 16:31N 59°56' E 029°55'610.8
2017-Jun-19 15:55N 59°57' E 030°07'2 4.1
2017-Jun-19 15:28N 59°57' E 030°11'0 0.0
2017-Jun-19 14:58N 59°57' E 030°11'0 0.0
2017-Jun-19 13:58N 59°57' E 030°11'0 0.0
2017-Jun-19 13:28N 59°57' E 030°11'0 0.0
2017-Jun-19 12:58N 59°57' E 030°11'0 0.0
2017-Jun-19 12:28N 59°57' E 030°11'0 0.0
2017-Jun-19 11:58N 59°57' E 030°11'0 0.0
2017-Jun-19 11:28N 59°57' E 030°11'0 0.0
2017-Jun-19 10:55N 59°57' E 030°11'0 0.0
2017-Jun-19 10:28N 59°57' E 030°11'0 0.0
2017-Jun-19 09:59N 59°57' E 030°11'0 0.0
2017-Jun-19 09:29N 59°57' E 030°11'0 0.0
2017-Jun-19 08:59N 59°57' E 030°11'0 0.0
2017-Jun-19 08:29N 59°57' E 030°11'0 0.0
2017-Jun-19 07:59N 59°57' E 030°11'0 0.0
2017-Jun-19 07:29N 59°57' E 030°11'0 0.0
2017-Jun-19 06:59N 59°57' E 030°11'0 0.0
2017-Jun-19 06:29N 59°57' E 030°11'0 0.0
2017-Jun-19 05:59N 59°57' E 030°11'0 0.0
2017-Jun-19 05:29N 59°57' E 030°11'0 0.0
2017-Jun-19 04:59N 59°57' E 030°11'0 0.0
2017-Jun-19 04:29N 59°57' E 030°11'0 0.0
2017-Jun-19 03:59N 59°57' E 030°11'0 0.0
2017-Jun-19 03:29N 59°57' E 030°11'0 0.0
2017-Jun-19 02:59N 59°57' E 030°11'0 0.0
2017-Jun-19 02:29N 59°57' E 030°11'0 0.0
2017-Jun-19 01:59N 59°57' E 030°11'0 0.0
2017-Jun-19 01:29N 59°57' E 030°11'0 0.0
2017-Jun-19 00:59N 59°57' E 030°11'0 0.0
2017-Jun-19 00:29N 59°57' E 030°11'0 0.0
2017-Jun-18 23:59N 59°57' E 030°11'0 0.0
2017-Jun-18 23:29N 59°57' E 030°11'0 0.0
2017-Jun-18 22:59N 59°57' E 030°11'0 0.0
2017-Jun-18 22:29N 59°57' E 030°11'0 0.0
2017-Jun-18 21:59N 59°57' E 030°11'0 0.0
2017-Jun-18 21:29N 59°57' E 030°11'0 0.0
2017-Jun-18 20:59N 59°57' E 030°11'0 0.0
2017-Jun-18 20:29N 59°57' E 030°11'0 0.0
2017-Jun-18 19:59N 59°57' E 030°11'0 0.0
2017-Jun-18 19:29N 59°57' E 030°11'0 0.0
2017-Jun-18 18:53N 59°57' E 030°11'0 0.0
2017-Jun-18 18:29N 59°57' E 030°11'0 0.0
2017-Jun-18 17:59N 59°57' E 030°11'0 0.0
2017-Jun-18 17:29N 59°57' E 030°11'0 0.0
2017-Jun-18 16:59N 59°57' E 030°11'0 0.0
2017-Jun-18 16:29N 59°57' E 030°11'0 0.0
2017-Jun-18 15:59N 59°57' E 030°11'0 0.0
2017-Jun-18 15:29N 59°57' E 030°11'0 0.0
2017-Jun-18 14:59N 59°57' E 030°11'0 0.0
2017-Jun-18 13:59N 59°57' E 030°11'0 0.0
2017-Jun-18 13:29N 59°57' E 030°11'0 0.0
2017-Jun-18 12:59N 59°57' E 030°11'0 0.0
2017-Jun-18 12:29N 59°57' E 030°11'0 0.0
2017-Jun-18 11:59N 59°57' E 030°11'0 0.0
2017-Jun-18 11:29N 59°57' E 030°11'0 0.0
2017-Jun-18 10:59N 59°57' E 030°11'0 0.0
2017-Jun-18 10:29N 59°57' E 030°11'0 0.0
2017-Jun-18 09:59N 59°57' E 030°11'0 0.0
2017-Jun-18 09:29N 59°57' E 030°11'0 0.0
2017-Jun-18 08:59N 59°57' E 030°11'0 0.0
2017-Jun-18 08:29N 59°57' E 030°11'0 0.0
2017-Jun-18 07:56N 59°57' E 030°11'0 0.0
2017-Jun-18 07:29N 59°57' E 030°11'0 0.0
2017-Jun-18 06:59N 59°57' E 030°11'0 0.0
2017-Jun-18 06:29N 59°57' E 030°11'0 0.0
2017-Jun-18 05:59N 59°57' E 030°11'0 0.0
2017-Jun-18 05:29N 59°57' E 030°11'0 0.0
2017-Jun-18 04:59N 59°57' E 030°11'0 0.0
2017-Jun-18 04:29N 59°57' E 030°11'0 0.0
2017-Jun-18 04:01N 59°57' E 030°11'1 2.2
2017-Jun-18 03:31N 59°57' E 030°09'5 9.5
2017-Jun-18 03:00N 59°55' E 030°00'611.2
2017-Jun-18 02:30N 59°57' E 029°50'5 9.0
2017-Jun-18 02:01N 59°59' E 029°42'611.6
2017-Jun-18 01:31N 60°01' E 029°31'611.0
2017-Jun-18 01:01N 60°02' E 029°20'714.1
2017-Jun-18 00:31N 60°02' E 029°06'714.4
2017-Jun-18 00:01N 60°02' E 028°51'714.9
2017-Jun-17 23:31N 60°02' E 028°36'714.6
2017-Jun-17 23:01N 60°04' E 028°22'714.5
2017-Jun-17 22:31N 60°08' E 028°10'714.5
2017-Jun-17 22:00N 60°10' E 027°55'713.5
2017-Jun-17 21:31N 60°09' E 027°42'714.5
2017-Jun-17 21:01N 60°06' E 027°29'8459.5
2017-Jun-17 21:00N 60°00' E 027°18'2 3.4 280 / 201013.010.8 15.7 9.113.0
2017-Jun-17 20:31N 60°02' E 027°17'714.3
2017-Jun-17 20:01N 59°58' E 027°05'714.5
2017-Jun-17 19:31N 59°59' E 026°51'612.2
2017-Jun-17 19:00N 59°59' E 026°38'611.1
2017-Jun-17 18:30N 59°58' E 026°27'714.8
2017-Jun-17 18:00N 59°56' E 026°13'815.5
2017-Jun-17 17:30N 59°54' E 025°58'815.7
2017-Jun-17 17:00N 59°52' E 025°43'815.6
2017-Jun-17 16:30N 59°51' E 025°28'815.6
2017-Jun-17 16:00N 59°50' E 025°13'296.8
2017-Jun-17 16:00N 59°48' E 025°12'714.2 280 / 171013.810.8 17.512.114.0
2017-Jun-17 15:30N 59°47' E 024°59'815.9
2017-Jun-17 15:00N 59°41' E 024°47'713.2
2017-Jun-17 14:31N 59°35' E 024°42'8 7.8
2017-Jun-17 13:26N 59°27' E 024°46'0 0.0
2017-Jun-17 12:59N 59°27' E 024°46'0 0.0
2017-Jun-17 12:29N 59°27' E 024°46'0 0.0
2017-Jun-17 11:59N 59°27' E 024°46'0 0.0
2017-Jun-17 11:29N 59°27' E 024°46'0 0.0
2017-Jun-17 10:59N 59°27' E 024°46'0 0.0
2017-Jun-17 10:29N 59°27' E 024°46'0 0.0
2017-Jun-17 09:59N 59°27' E 024°46'0 0.0
2017-Jun-17 09:29N 59°27' E 024°46'0 0.0
2017-Jun-17 08:59N 59°27' E 024°46'0 0.0
2017-Jun-17 08:29N 59°27' E 024°46'0 0.0
2017-Jun-17 07:56N 59°27' E 024°46'0 0.0
2017-Jun-17 07:26N 59°27' E 024°46'0 0.0
2017-Jun-17 06:59N 59°27' E 024°46'0 0.0
2017-Jun-17 06:29N 59°27' E 024°46'0 0.0
2017-Jun-17 05:59N 59°27' E 024°46'0 0.6
2017-Jun-17 05:30N 59°27' E 024°46'4 7.8
2017-Jun-17 05:00N 59°31' E 024°42'715.0
2017-Jun-17 04:30N 59°30' E 024°28'917.2
2017-Jun-17 04:00N 59°30' E 024°11'917.4
2017-Jun-17 03:30N 59°29' E 023°54'918.2
2017-Jun-17 03:01N 59°28' E 023°36'1019.6
2017-Jun-17 02:30N 59°27' E 023°17'1020.0
2017-Jun-17 02:00N 59°26' E 022°57'1020.2
2017-Jun-17 01:30N 59°25' E 022°37'1020.2
2017-Jun-17 01:00N 59°23' E 022°18'917.9
2017-Jun-17 00:31N 59°24' E 022°00'1019.8
2017-Jun-17 00:01N 59°24' E 021°41'1020.1
2017-Jun-16 23:30N 59°23' E 021°21'1020.2
2017-Jun-16 23:00N 59°23' E 021°01'1020.0
2017-Jun-16 22:30N 59°22' E 020°42'1020.0
2017-Jun-16 22:00N 59°22' E 020°22'1019.3
2017-Jun-16 21:30N 59°27' E 020°05'1019.2
2017-Jun-16 21:00N 59°36' E 020°00'1020.4
2017-Jun-16 20:31N 59°43' E 019°47'1019.2
2017-Jun-16 20:00N 59°48' E 019°29'714.1
2017-Jun-16 19:31N 59°45' E 019°16'815.0
2017-Jun-16 19:01N 59°42' E 019°03'611.3
2017-Jun-16 18:30N 59°39' E 018°54'612.0
2017-Jun-16 18:00N 59°35' E 018°44'510.4
2017-Jun-16 17:31N 59°33' E 018°35'5 9.7
2017-Jun-16 17:01N 59°30' E 018°28'510.3
2017-Jun-16 16:31N 59°25' E 018°25'3 5.9
2017-Jun-16 16:00N 59°22' E 018°24'510.2
2017-Jun-16 15:31N 59°21' E 018°14'4 8.6
2017-Jun-16 15:01N 59°19' E 018°06'0 0.1
2017-Jun-16 14:26N 59°19' E 018°06'0 0.0
2017-Jun-16 13:26N 59°19' E 018°06'0 0.0
2017-Jun-16 12:56N 59°19' E 018°06'0 0.0
2017-Jun-16 12:26N 59°19' E 018°06'  
Track history (hours):
 
Tides and Currents Weather Stations Pressure Air Temp Water Temp Dewpoint Dewpoint Depression Visibility Wind Speed Wind Dir Waves Ship Positions

Queen Elizabeth

Last reported at 2017-Jun-26 11:56 UTC. Time now 2017-Jun-26 12:07 UTC.
Position N 58°58' E 005°44'.

Length 294 m; draft 8 m.

Type: Passenger vessel. MMSI: 310625000.

Date/timePositionNaut miles runAvg speedWind from/ knotsBaromVisibWave heightAir tempDewpointWater temp
2017-Jun-26 11:56N 58°58' E 005°44'0 0.0
2017-Jun-26 11:26N 58°58' E 005°44'0 0.0
2017-Jun-26 10:56N 58°58' E 005°44'0 0.0
2017-Jun-26 10:26N 58°58' E 005°44'0 0.0
2017-Jun-26 09:56N 58°58' E 005°44'0 0.0
2017-Jun-26 09:26N 58°58' E 005°44'0 0.0
2017-Jun-26 08:56N 58°58' E 005°44'0 0.0
2017-Jun-26 08:26N 58°58' E 005°44'0 0.0
2017-Jun-26 07:56N 58°58' E 005°44'0 0.0
2017-Jun-26 07:26N 58°58' E 005°44'0 0.0
2017-Jun-26 06:56N 58°58' E 005°44'0 0.0
2017-Jun-26 06:26N 58°58' E 005°44'0 0.0
2017-Jun-26 05:56N 58°58' E 005°44'0 0.4
2017-Jun-26 05:31N 58°59' E 005°44'4 7.7
2017-Jun-26 05:01N 59°01' E 005°38'4 7.8
2017-Jun-26 04:31N 58°59' E 005°33'714.8
2017-Jun-26 04:01N 58°51' E 005°31'713.4
2017-Jun-26 03:30N 58°47' E 005°21'815.4
2017-Jun-26 03:00N 58°40' E 005°13'815.9
2017-Jun-26 02:30N 58°33' E 005°06'815.8
2017-Jun-26 02:00N 58°27' E 004°58'15317.0
2017-Jun-25 17:00N 56°00' E 003°36'20717.2 260 / 271004.710.8 13.5 7.414.0
2017-Jun-25 05:00N 52°36' E 002°36'3521.5 260 / 261008.4 5.4 15.113.315.0
2017-Jun-25 03:21N 52°01' E 002°36'820.1
2017-Jun-25 02:57N 51°53' E 002°36'919.9
2017-Jun-25 02:30N 51°44' E 002°32'1020.4
2017-Jun-25 02:00N 51°36' E 002°22'1020.8
2017-Jun-25 01:30N 51°28' E 002°11'1019.3
2017-Jun-25 01:00N 51°19' E 002°07'1019.5
2017-Jun-25 00:30N 51°11' E 001°57'1121.2
2017-Jun-25 00:00N 51°05' E 001°44'1121.7
2017-Jun-24 23:30N 50°58' E 001°31'1020.6
2017-Jun-24 23:00N 50°48' E 001°24'1019.4
2017-Jun-24 22:30N 50°40' E 001°16'1419.8
2017-Jun-24 21:49N 50°32' E 000°59'719.6
2017-Jun-24 21:28N 50°30' E 000°48'1520.2
2017-Jun-24 20:44N 50°25' E 000°27'520.6
2017-Jun-24 20:29N 50°23' E 000°19'1020.5
2017-Jun-24 20:00N 50°22' E 000°04'1219.5
2017-Jun-24 19:25N 50°26' W 000°13'819.8
2017-Jun-24 19:00N 50°29' W 000°25'1019.4
2017-Jun-24 18:30N 50°34' W 000°38'1019.9
2017-Jun-24 18:00N 50°38' W 000°52'7416.3
2017-Jun-24 18:00N 50°36' W 000°42'1326.9 230 / 391013.4 5.4 16.515.818.0
2017-Jun-24 17:30N 50°43' W 000°59'918.2
2017-Jun-24 17:00N 50°46' W 001°13'510.5
2017-Jun-24 16:30N 50°50' W 001°19'5 9.5
2017-Jun-24 16:00N 50°53' W 001°24'1 1.0
2017-Jun-24 15:27N 50°54' W 001°24'0 0.0
2017-Jun-24 14:54N 50°54' W 001°24'0 0.0
2017-Jun-24 13:57N 50°54' W 001°24'0 0.0
2017-Jun-24 13:18N 50°54' W 001°24'0 0.0
2017-Jun-24 12:36N 50°54' W 001°24'0 0.0
2017-Jun-24 12:15N 50°54' W 001°24'0 0.0
2017-Jun-24 11:51N 50°54' W 001°24'0 0.0
2017-Jun-24 11:09N 50°54' W 001°24'0 0.0
2017-Jun-24 11:00N 50°54' W 001°24'0 0.0
2017-Jun-24 10:30N 50°54' W 001°24'0 0.0
2017-Jun-24 09:57N 50°54' W 001°24'0 0.0
2017-Jun-24 09:30N 50°54' W 001°24'0 0.0
2017-Jun-24 09:00N 50°54' W 001°24'0 0.0
2017-Jun-24 08:03N 50°54' W 001°24'0 0.0
2017-Jun-24 07:54N 50°54' W 001°24'0 0.0
2017-Jun-24 07:27N 50°54' W 001°24'0 0.0
2017-Jun-24 07:00N 50°54' W 001°24'0 0.0
2017-Jun-24 06:27N 50°54' W 001°24'0 0.0
2017-Jun-24 05:54N 50°54' W 001°24'0 0.0
2017-Jun-24 05:27N 50°54' W 001°24'1 1.4
2017-Jun-24 05:01N 50°53' W 001°24'5 9.4
2017-Jun-24 04:30N 50°50' W 001°18'4 8.3
2017-Jun-24 04:01N 50°46' W 001°15'816.5
2017-Jun-24 03:31N 50°44' W 001°02'612.5
2017-Jun-24 03:00N 50°39' W 000°56'714.2
2017-Jun-24 02:30N 50°35' W 000°46'917.3
2017-Jun-24 02:00N 50°34' W 000°33'917.7
2017-Jun-24 01:30N 50°33' W 000°19'918.5
2017-Jun-24 01:00N 50°32' W 000°05'917.7
2017-Jun-24 00:30N 50°33' E 000°09'917.8
2017-Jun-24 00:00N 50°36' E 000°22'917.5
2017-Jun-23 23:29N 50°39' E 000°36'817.6
2017-Jun-23 23:00N 50°43' E 000°47'917.1
2017-Jun-23 22:30N 50°49' E 000°57'816.8
2017-Jun-23 22:00N 50°54' E 001°07'816.8
2017-Jun-23 21:30N 50°60' E 001°18'917.3
2017-Jun-23 21:00N 51°05' E 001°29'917.7
2017-Jun-23 20:30N 51°10' E 001°40'917.3
2017-Jun-23 20:00N 51°17' E 001°48'918.0
2017-Jun-23 19:30N 51°25' E 001°55'918.5
2017-Jun-23 19:00N 51°33' E 002°03'918.1
2017-Jun-23 18:31N 51°39' E 002°14'918.5
2017-Jun-23 18:00N 51°46' E 002°24'1418.0
2017-Jun-23 17:13N 51°58' E 002°35'524.1
2017-Jun-23 17:00N 51°54' E 002°30'10346.6 220 / 281015.0 5.4 16.014.316.0
2017-Jun-23 16:58N 52°03' E 002°36'2217.3
2017-Jun-23 15:40N 52°24' E 002°49'3217.1
2017-Jun-23 13:47N 52°52' E 003°14'617.2
2017-Jun-23 13:28N 52°57' E 003°17'1117.5
2017-Jun-23 12:51N 53°08' E 003°22'617.5
2017-Jun-23 12:29N 53°14' E 003°25'917.6
2017-Jun-23 12:00N 53°22' E 003°29'917.8
2017-Jun-23 11:30N 53°31' E 003°33'1018.2
2017-Jun-23 10:57N 53°40' E 003°38'817.4
2017-Jun-23 10:30N 53°46' E 003°46'917.9
2017-Jun-23 10:00N 53°52' E 003°58'918.6
2017-Jun-23 09:30N 53°57' E 004°11'1218.5
2017-Jun-23 08:52N 54°04' E 004°27'818.3
2017-Jun-23 08:27N 54°10' E 004°35'918.4
2017-Jun-23 07:58N 54°18' E 004°43'918.5
2017-Jun-23 07:30N 54°26' E 004°49'918.4
2017-Jun-23 06:59N 54°34' E 004°58'918.6
2017-Jun-23 06:30N 54°41' E 005°07'918.8
2017-Jun-23 06:00N 54°49' E 005°16'1019.0
2017-Jun-23 05:30N 54°57' E 005°25'3 6.3
2017-Jun-23 05:00N 55°00' E 005°24'16020.3 280 / 271010.2 5.4 14.012.215.0
2017-Jun-22 21:08N 57°13' E 008°03'1919.1
2017-Jun-22 20:09N 57°23' E 008°32'319.3
2017-Jun-22 19:59N 57°25' E 008°37'1019.4
2017-Jun-22 19:30N 57°30' E 008°51'1319.3
2017-Jun-22 18:49N 57°37' E 009°13'619.2
2017-Jun-22 18:30N 57°40' E 009°22'1019.2
2017-Jun-22 17:59N 57°45' E 009°38'1419.2
2017-Jun-22 17:17N 57°49' E 010°02'519.5
2017-Jun-22 17:00N 57°50' E 010°13'4828.2
2017-Jun-22 17:00N 57°48' E 010°06'1327.2 140 / 51006.910.8 15.011.315.0
2017-Jun-22 16:30N 57°51' E 010°31'918.0
2017-Jun-22 16:00N 57°49' E 010°47'713.6
2017-Jun-22 15:30N 57°43' E 010°42'3 6.4
2017-Jun-22 15:00N 57°43' E 010°36'0 0.4
2017-Jun-22 13:40N 57°43' E 010°35'0 0.0
2017-Jun-22 13:16N 57°43' E 010°35'0 0.0
2017-Jun-22 12:58N 57°43' E 010°35'0 0.0
2017-Jun-22 12:10N 57°43' E 010°35'0 0.0
2017-Jun-22 11:46N 57°43' E 010°35'0 0.0
2017-Jun-22 11:04N 57°43' E 010°35'0 0.0
2017-Jun-22 09:52N 57°43' E 010°35'0 0.0
2017-Jun-22 09:28N 57°43' E 010°35'0 0.0
2017-Jun-22 08:58N 57°43' E 010°35'0 0.0
2017-Jun-22 08:28N 57°43' E 010°35'0 0.0
2017-Jun-22 08:01N 57°43' E 010°35'0 0.0
2017-Jun-22 07:28N 57°43' E 010°35'0 0.1
2017-Jun-22 07:01N 57°43' E 010°35'3 5.5
2017-Jun-22 06:30N 57°43' E 010°40'713.4
2017-Jun-22 05:59N 57°42' E 010°53'917.7
2017-Jun-22 05:30N 57°38' E 011°08'1020.7
2017-Jun-22 05:00N 57°31' E 011°22'5321.2
2017-Jun-22 05:00N 57°30' E 011°12'1327.3 240 / 261008.810.8 14.012.216.0
2017-Jun-22 04:30N 57°22' E 011°32'1021.2
2017-Jun-22 04:00N 57°12' E 011°38'2020.9
2017-Jun-22 03:03N 56°53' E 011°51'221.0
2017-Jun-22 02:58N 56°52' E 011°53'1019.4
2017-Jun-22 02:26N 56°41' E 011°54'1221.0
2017-Jun-22 01:51N 56°35' E 011°35'821.2
2017-Jun-22 01:30N 56°30' E 011°24'1220.4
2017-Jun-22 00:55N 56°22' E 011°08'6518.8
2017-Jun-21 21:28N 55°18' E 011°03'817.8
2017-Jun-21 21:01N 55°10' E 011°03'1019.8
2017-Jun-21 20:31N 54°60' E 011°01'1019.3
2017-Jun-21 20:00N 54°51' E 010°53'918.9
2017-Jun-21 19:31N 54°42' E 010°53'917.2
2017-Jun-21 19:00N 54°36' E 010°42'918.1
2017-Jun-21 18:30N 54°32' E 010°28'17 2.6
2017-Jun-21 12:03N 54°19' E 010°09'0 0.0
2017-Jun-21 12:00N 54°19' E 010°09'0 0.0
2017-Jun-21 11:30N 54°19' E 010°09'0 0.0
2017-Jun-21 10:54N 54°19' E 010°09'0 0.0
2017-Jun-21 10:30N 54°19' E 010°09'0 0.0
2017-Jun-21 10:00N 54°19' E 010°09'0 0.0
2017-Jun-21 09:30N 54°19' E 010°09'0 0.0
2017-Jun-21 09:00N 54°19' E 010°09'0 0.0
2017-Jun-21 08:30N 54°19' E 010°09'0 0.0
2017-Jun-21 08:00N 54°19' E 010°09'0 0.0
2017-Jun-21 07:30N 54°19' E 010°09'0 0.0
2017-Jun-21 07:00N 54°19' E 010°09'0 0.4
2017-Jun-21 06:30N 54°20' E 010°09'2 4.7
2017-Jun-21 06:00N 54°22' E 010°10'510.2
2017-Jun-21 05:30N 54°27' E 010°14'612.2
2017-Jun-21 05:01N 54°31' E 010°21'816.5
2017-Jun-21 04:31N 54°34' E 010°34'917.9
2017-Jun-21 04:01N 54°35' E 010°49'1019.0
2017-Jun-21 03:30N 54°36' E 011°06'919.0
2017-Jun-21 03:01N 54°33' E 011°21'1220.0
2017-Jun-21 02:24N 54°28' E 011°40'819.7
2017-Jun-21 02:01N 54°26' E 011°53'5318.4
2017-Jun-20 23:08N 54°53' E 013°11'321.0
2017-Jun-20 23:00N 54°54' E 013°16'1020.8
2017-Jun-20 22:30N 54°58' E 013°33'1020.7
2017-Jun-20 22:00N 55°01' E 013°50'1021.0
2017-Jun-20 21:30N 55°05' E 014°06'1121.2
2017-Jun-20 21:00N 55°14' E 014°17'1121.2
2017-Jun-20 20:30N 55°22' E 014°30'1020.8
2017-Jun-20 20:01N 55°28' E 014°45'1121.3
2017-Jun-20 19:31N 55°33' E 015°01'1121.2
2017-Jun-20 19:01N 55°38' E 015°17'1020.7
2017-Jun-20 18:30N 55°43' E 015°33'1020.7
2017-Jun-20 18:01N 55°48' E 015°49'1020.6
2017-Jun-20 17:30N 55°53' E 016°06'1020.6
2017-Jun-20 17:01N 55°59' E 016°21'7414.1
2017-Jun-20 17:00N 55°54' E 016°12'1735.6 290 / 331010.627.0 15.5 7.513.0
2017-Jun-20 16:30N 56°05' E 016°37'1020.8
2017-Jun-20 16:00N 56°11' E 016°51'17621.9
2017-Jun-20 07:59N 58°21' E 020°30'1122.8
2017-Jun-20 07:30N 58°30' E 020°42'1122.7
2017-Jun-20 07:00N 58°39' E 020°55'1122.3
2017-Jun-20 06:29N 58°48' E 021°08'1122.5
2017-Jun-20 06:00N 58°57' E 021°20'1122.3
2017-Jun-20 05:30N 59°06' E 021°33'1121.7
2017-Jun-20 05:00N 59°14' E 021°48'1122.0
2017-Jun-20 04:30N 59°21' E 022°05'1122.3
2017-Jun-20 04:00N 59°28' E 022°22'1122.2
2017-Jun-20 03:30N 59°33' E 022°41'1122.7
2017-Jun-20 03:01N 59°35' E 023°03'1122.7
2017-Jun-20 02:31N 59°38' E 023°25'1122.9
2017-Jun-20 02:01N 59°41' E 023°46'1122.8
2017-Jun-20 01:31N 59°45' E 024°08'1122.9
2017-Jun-20 01:01N 59°48' E 024°30'1122.8
2017-Jun-20 00:30N 59°50' E 024°52'1122.7
2017-Jun-20 00:01N 59°52' E 025°14'1122.7
2017-Jun-19 23:30N 59°53' E 025°37'1122.6
2017-Jun-19 23:00N 59°56' E 025°59'6345.5
2017-Jun-19 23:00N 59°54' E 025°48'1735.0 310 / 161008.110.8 14.0 5.612.0
2017-Jun-19 22:30N 59°59' E 026°20'1122.0
2017-Jun-19 22:00N 60°01' E 026°42'1121.9
2017-Jun-19 21:30N 60°00' E 027°04'1122.4
2017-Jun-19 21:01N 60°06' E 027°23'1122.3
2017-Jun-19 20:31N 60°11' E 027°43'1122.6
2017-Jun-19 20:00N 60°09' E 028°05'1121.4
2017-Jun-19 19:30N 60°05' E 028°25'1121.0
2017-Jun-19 19:00N 60°03' E 028°46'1122.0
2017-Jun-19 18:30N 60°02' E 029°07'917.7
2017-Jun-19 18:01N 60°02' E 029°25'5 9.1
2017-Jun-19 17:31N 60°01' E 029°34'611.5
2017-Jun-19 17:01N 59°59' E 029°45'510.9
2017-Jun-19 16:31N 59°56' E 029°55'610.8
2017-Jun-19 15:55N 59°57' E 030°07'2 4.1
2017-Jun-19 15:28N 59°57' E 030°11'0 0.0
2017-Jun-19 14:58N 59°57' E 030°11'0 0.0
2017-Jun-19 13:58N 59°57' E 030°11'0 0.0
2017-Jun-19 13:28N 59°57' E 030°11'0 0.0
2017-Jun-19 12:58N 59°57' E 030°11'0 0.0
2017-Jun-19 12:28N 59°57' E 030°11'0 0.0
2017-Jun-19 11:58N 59°57' E 030°11'0 0.0
2017-Jun-19 11:28N 59°57' E 030°11'0 0.0
2017-Jun-19 10:55N 59°57' E 030°11'0 0.0
2017-Jun-19 10:28N 59°57' E 030°11'0 0.0
2017-Jun-19 09:59N 59°57' E 030°11'0 0.0
2017-Jun-19 09:29N 59°57' E 030°11'0 0.0
2017-Jun-19 08:59N 59°57' E 030°11'0 0.0
2017-Jun-19 08:29N 59°57' E 030°11'0 0.0
2017-Jun-19 07:59N 59°57' E 030°11'0 0.0
2017-Jun-19 07:29N 59°57' E 030°11'0 0.0
2017-Jun-19 06:59N 59°57' E 030°11'0 0.0
2017-Jun-19 06:29N 59°57' E 030°11'0 0.0
2017-Jun-19 05:59N 59°57' E 030°11'0 0.0
2017-Jun-19 05:29N 59°57' E 030°11'0 0.0
2017-Jun-19 04:59N 59°57' E 030°11'0 0.0
2017-Jun-19 04:29N 59°57' E 030°11'0 0.0
2017-Jun-19 03:59N 59°57' E 030°11'0 0.0
2017-Jun-19 03:29N 59°57' E 030°11'0 0.0
2017-Jun-19 02:59N 59°57' E 030°11'0 0.0
2017-Jun-19 02:29N 59°57' E 030°11'0 0.0
2017-Jun-19 01:59N 59°57' E 030°11'0 0.0
2017-Jun-19 01:29N 59°57' E 030°11'0 0.0
2017-Jun-19 00:59N 59°57' E 030°11'0 0.0
2017-Jun-19 00:29N 59°57' E 030°11'0 0.0
2017-Jun-18 23:59N 59°57' E 030°11'0 0.0
2017-Jun-18 23:29N 59°57' E 030°11'0 0.0
2017-Jun-18 22:59N 59°57' E 030°11'0 0.0
2017-Jun-18 22:29N 59°57' E 030°11'0 0.0
2017-Jun-18 21:59N 59°57' E 030°11'0 0.0
2017-Jun-18 21:29N 59°57' E 030°11'0 0.0
2017-Jun-18 20:59N 59°57' E 030°11'0 0.0
2017-Jun-18 20:29N 59°57' E 030°11'0 0.0
2017-Jun-18 19:59N 59°57' E 030°11'0 0.0
2017-Jun-18 19:29N 59°57' E 030°11'0 0.0
2017-Jun-18 18:53N 59°57' E 030°11'0 0.0
2017-Jun-18 18:29N 59°57' E 030°11'0 0.0
2017-Jun-18 17:59N 59°57' E 030°11'0 0.0
2017-Jun-18 17:29N 59°57' E 030°11'0 0.0
2017-Jun-18 16:59N 59°57' E 030°11'0 0.0
2017-Jun-18 16:29N 59°57' E 030°11'0 0.0
2017-Jun-18 15:59N 59°57' E 030°11'0 0.0
2017-Jun-18 15:29N 59°57' E 030°11'0 0.0
2017-Jun-18 14:59N 59°57' E 030°11'0 0.0
2017-Jun-18 13:59N 59°57' E 030°11'0 0.0
2017-Jun-18 13:29N 59°57' E 030°11'0 0.0
2017-Jun-18 12:59N 59°57' E 030°11'0 0.0
2017-Jun-18 12:29N 59°57' E 030°11'0 0.0
2017-Jun-18 11:59N 59°57' E 030°11'0 0.0
2017-Jun-18 11:29N 59°57' E 030°11'0 0.0
2017-Jun-18 10:59N 59°57' E 030°11'0 0.0
2017-Jun-18 10:29N 59°57' E 030°11'0 0.0
2017-Jun-18 09:59N 59°57' E 030°11'0 0.0
2017-Jun-18 09:29N 59°57' E 030°11'0 0.0
2017-Jun-18 08:59N 59°57' E 030°11'0 0.0
2017-Jun-18 08:29N 59°57' E 030°11'0 0.0
2017-Jun-18 07:56N 59°57' E 030°11'0 0.0
2017-Jun-18 07:29N 59°57' E 030°11'0 0.0
2017-Jun-18 06:59N 59°57' E 030°11'0 0.0
2017-Jun-18 06:29N 59°57' E 030°11'0 0.0
2017-Jun-18 05:59N 59°57' E 030°11'0 0.0
2017-Jun-18 05:29N 59°57' E 030°11'0 0.0
2017-Jun-18 04:59N 59°57' E 030°11'0 0.0
2017-Jun-18 04:29N 59°57' E 030°11'0 0.0
2017-Jun-18 04:01N 59°57' E 030°11'1 2.2
2017-Jun-18 03:31N 59°57' E 030°09'5 9.5
2017-Jun-18 03:00N 59°55' E 030°00'611.2
2017-Jun-18 02:30N 59°57' E 029°50'5 9.0
2017-Jun-18 02:01N 59°59' E 029°42'611.6
2017-Jun-18 01:31N 60°01' E 029°31'611.0
2017-Jun-18 01:01N 60°02' E 029°20'714.1
2017-Jun-18 00:31N 60°02' E 029°06'714.4
2017-Jun-18 00:01N 60°02' E 028°51'714.9
2017-Jun-17 23:31N 60°02' E 028°36'714.6
2017-Jun-17 23:01N 60°04' E 028°22'714.5
2017-Jun-17 22:31N 60°08' E 028°10'714.5
2017-Jun-17 22:00N 60°10' E 027°55'713.5
2017-Jun-17 21:31N 60°09' E 027°42'714.5
2017-Jun-17 21:01N 60°06' E 027°29'8459.5
2017-Jun-17 21:00N 60°00' E 027°18'2 3.4 280 / 201013.010.8 15.7 9.113.0
2017-Jun-17 20:31N 60°02' E 027°17'714.3
2017-Jun-17 20:01N 59°58' E 027°05'714.5
2017-Jun-17 19:31N 59°59' E 026°51'612.2
2017-Jun-17 19:00N 59°59' E 026°38'611.1
2017-Jun-17 18:30N 59°58' E 026°27'714.8
2017-Jun-17 18:00N 59°56' E 026°13'815.5
2017-Jun-17 17:30N 59°54' E 025°58'815.7
2017-Jun-17 17:00N 59°52' E 025°43'815.6
2017-Jun-17 16:30N 59°51' E 025°28'815.6
2017-Jun-17 16:00N 59°50' E 025°13'296.8
2017-Jun-17 16:00N 59°48' E 025°12'714.2 280 / 171013.810.8 17.512.114.0
2017-Jun-17 15:30N 59°47' E 024°59'815.9
2017-Jun-17 15:00N 59°41' E 024°47'713.2
2017-Jun-17 14:31N 59°35' E 024°42'8 7.8
2017-Jun-17 13:26N 59°27' E 024°46'0 0.0
2017-Jun-17 12:59N 59°27' E 024°46'0 0.0
2017-Jun-17 12:29N 59°27' E 024°46'0 0.0
2017-Jun-17 11:59N 59°27' E 024°46'0 0.0
2017-Jun-17 11:29N 59°27' E 024°46'0 0.0
2017-Jun-17 10:59N 59°27' E 024°46'0 0.0
2017-Jun-17 10:29N 59°27' E 024°46'0 0.0
2017-Jun-17 09:59N 59°27' E 024°46'0 0.0
2017-Jun-17 09:29N 59°27' E 024°46'0 0.0
2017-Jun-17 08:59N 59°27' E 024°46'0 0.0
2017-Jun-17 08:29N 59°27' E 024°46'0 0.0
2017-Jun-17 07:56N 59°27' E 024°46'0 0.0
2017-Jun-17 07:26N 59°27' E 024°46'0 0.0
2017-Jun-17 06:59N 59°27' E 024°46'0 0.0
2017-Jun-17 06:29N 59°27' E 024°46'0 0.0
2017-Jun-17 05:59N 59°27' E 024°46'0 0.6
2017-Jun-17 05:30N 59°27' E 024°46'4 7.8
2017-Jun-17 05:00N 59°31' E 024°42'715.0
2017-Jun-17 04:30N 59°30' E 024°28'917.2
2017-Jun-17 04:00N 59°30' E 024°11'917.4
2017-Jun-17 03:30N 59°29' E 023°54'918.2
2017-Jun-17 03:01N 59°28' E 023°36'1019.6
2017-Jun-17 02:30N 59°27' E 023°17'1020.0
2017-Jun-17 02:00N 59°26' E 022°57'1020.2
2017-Jun-17 01:30N 59°25' E 022°37'1020.2
2017-Jun-17 01:00N 59°23' E 022°18'917.9
2017-Jun-17 00:31N 59°24' E 022°00'1019.8
2017-Jun-17 00:01N 59°24' E 021°41'1020.1
2017-Jun-16 23:30N 59°23' E 021°21'1020.2
2017-Jun-16 23:00N 59°23' E 021°01'1020.0
2017-Jun-16 22:30N 59°22' E 020°42'1020.0
2017-Jun-16 22:00N 59°22' E 020°22'1019.3
2017-Jun-16 21:30N 59°27' E 020°05'1019.2
2017-Jun-16 21:00N 59°36' E 020°00'1020.4
2017-Jun-16 20:31N 59°43' E 019°47'1019.2
2017-Jun-16 20:00N 59°48' E 019°29'714.1
2017-Jun-16 19:31N 59°45' E 019°16'815.0
2017-Jun-16 19:01N 59°42' E 019°03'611.3
2017-Jun-16 18:30N 59°39' E 018°54'612.0
2017-Jun-16 18:00N 59°35' E 018°44'510.4
2017-Jun-16 17:31N 59°33' E 018°35'5 9.7
2017-Jun-16 17:01N 59°30' E 018°28'510.3
2017-Jun-16 16:31N 59°25' E 018°25'3 5.9
2017-Jun-16 16:00N 59°22' E 018°24'510.2
2017-Jun-16 15:31N 59°21' E 018°14'4 8.6
2017-Jun-16 15:01N 59°19' E 018°06'0 0.1
2017-Jun-16 14:26N 59°19' E 018°06'0 0.0
2017-Jun-16 13:26N 59°19' E 018°06'0 0.0
2017-Jun-16 12:56N 59°19' E 018°06'0 0.0
2017-Jun-16 12:26N 59°19' E 018°06'  

Dump ship's entire track history